Aviation Digital Data Service (ADDS)

Output produced by TAFs form (1955 UTC 06 December 2016)
found at http://aviationweather.gov/adds/tafs/
 
KTEX 061729Z 0618/0718 VRB03KT P6SM SCT035 BKN045 OVC050 
     FM062000 21014G34KT P6SM VCSH BKN035 
     FM062300 24017G38KT P6SM VCSH BKN040 
     FM070000 24011G30KT P6SM VCSH BKN050 WS020/23040KT 
     FM070600 24017G42KT P6SM VCSH OVC070 
     FM070900 26014G37KT 5SM BR VCSH OVC030